Time;durP1;ratioP1;P1;durP2;ratioP2;P2;SDS_P1;SDS_P2;PMS_P1;PMS_P2;Temp;Humidity;BMP_temperature;BMP_pressure;BME280_temperature;BME280_humidity;BME280_pressure;Samples;Min_cycle;Max_cycle;Signal;HPM_P1;HPM_P2
2023/01/01 00:02:03;;;;;;;5.08;3.80;;;;;;;13.83;80.06;100408.89;1709955;81;21692;-81
2023/01/01 00:04:31;;;;;;;8.18;4.03;;;;;;;13.82;79.97;100393.34;1772250;80;21056;-81
2023/01/01 00:06:57;;;;;;;7.03;3.70;;;;;;;13.81;79.93;100402.89;1762806;80;21034;-81
2023/01/01 00:12:09;;;;;;;6.10;3.80;;;;;;;13.81;79.89;100402.89;1773562;80;21038;-81
2023/01/01 00:14:43;;;;;;;5.33;4.35;;;;;;;13.81;79.86;100404.64;1766307;79;21088;-81
2023/01/01 00:17:20;;;;;;;5.85;3.80;;;;;;;13.79;79.83;100407.29;1701792;83;21073;-80
2023/01/01 00:19:47;;;;;;;6.25;3.85;;;;;;;13.78;79.84;100404.29;1771869;79;21040;-81
2023/01/01 00:22:13;;;;;;;5.83;3.80;;;;;;;13.75;79.73;100406.98;1768751;79;21084;-81
2023/01/01 00:24:59;;;;;;;6.97;4.10;;;;;;;13.73;79.72;100415.28;1700555;83;21073;-81
2023/01/01 00:27:25;;;;;;;5.62;3.95;;;;;;;13.70;79.71;100423.17;1772254;79;21135;-81
2023/01/01 00:30:03;;;;;;;4.30;3.90;;;;;;;13.68;79.70;100419.78;1769271;80;21831;-81
2023/01/01 00:32:49;;;;;;;7.75;4.10;;;;;;;13.66;79.62;100412.48;1728164;82;21445;-80
2023/01/01 00:35:55;;;;;;;4.58;3.50;;;;;;;13.65;79.63;100427.66;1727295;80;21036;-80
2023/01/01 00:38:42;;;;;;;6.10;3.85;;;;;;;13.64;79.55;100426.41;1769845;80;21405;-80
2023/01/01 00:41:10;;;;;;;5.20;4.08;;;;;;;13.62;79.57;100424.31;1726676;80;21610;-81
2023/01/01 00:43:36;;;;;;;3.98;3.58;;;;;;;13.60;79.53;100428.26;1773296;79;20975;-81
2023/01/01 00:46:05;;;;;;;4.08;3.47;;;;;;;13.57;79.51;100428.36;1768264;79;24713;-81
2023/01/01 00:48:32;;;;;;;4.25;3.67;;;;;;;13.55;79.48;100428.85;1725708;81;21083;-81
2023/01/01 00:50:58;;;;;;;5.90;4.10;;;;;;;13.52;79.43;100437.59;1768335;79;21765;-81
2023/01/01 00:53:25;;;;;;;4.53;3.33;;;;;;;13.52;79.44;100423.30;1759505;80;21429;-80
2023/01/01 00:55:53;;;;;;;4.90;3.37;;;;;;;13.51;79.34;100429.87;1754051;80;25035;-80
2023/01/01 00:58:21;;;;;;;4.35;3.47;;;;;;;13.51;79.38;100431.17;1771611;79;21580;-81
2023/01/01 01:00:49;;;;;;;4.50;3.45;;;;;;;13.52;79.34;100440.64;1768229;80;21578;-81
2023/01/01 01:03:27;;;;;;;5.97;3.60;;;;;;;13.51;79.29;100448.91;1724970;80;21110;-81
2023/01/01 01:06:07;;;;;;;3.92;3.33;;;;;;;13.51;79.28;100436.38;1751060;80;21430;-80
2023/01/01 01:08:36;;;;;;;3.58;2.80;;;;;;;13.48;79.22;100443.81;1765347;79;21090;-81
2023/01/01 01:11:10;;;;;;;3.45;2.70;;;;;;;13.48;79.23;100445.55;1752376;80;21343;-81
2023/01/01 01:13:38;;;;;;;6.15;3.35;;;;;;;13.48;79.17;100452.05;1760381;80;21530;-81
2023/01/01 01:16:12;;;;;;;5.25;3.20;;;;;;;13.48;79.17;100459.84;1753852;80;21095;-81
2023/01/01 01:18:38;;;;;;;5.12;3.25;;;;;;;13.45;79.12;100456.89;1771651;80;21050;-81
2023/01/01 01:21:05;;;;;;;3.72;3.33;;;;;;;13.44;79.09;100459.08;1766546;79;21394;-80
2023/01/01 01:23:32;;;;;;;3.50;2.98;;;;;;;13.43;79.10;100463.87;1766305;79;21044;-81
2023/01/01 01:26:09;;;;;;;;;;;;;;;13.42;79.00;100466.07;1744029;81;21629;-81
2023/01/01 01:28:36;;;;;;;4.70;3.33;;;;;;;13.42;78.79;100468.67;1747232;80;20260;-81
2023/01/01 01:31:03;;;;;;;3.45;2.90;;;;;;;13.41;78.95;100472.61;1761890;79;25243;-81
2023/01/01 01:33:30;;;;;;;3.77;2.85;;;;;;;13.40;78.94;100470.46;1750596;80;21533;-81
2023/01/01 01:35:56;;;;;;;3.45;3.12;;;;;;;13.38;78.89;100469.66;1765833;80;21039;-80
2023/01/01 01:38:23;;;;;;;3.70;3.08;;;;;;;13.38;78.87;100472.70;1774169;80;20996;-80
2023/01/01 01:40:50;;;;;;;4.10;3.00;;;;;;;13.37;78.84;100471.00;1771573;80;21471;-81
2023/01/01 01:43:36;;;;;;;4.83;3.67;;;;;;;13.36;78.81;100477.09;1754171;80;21640;-81
2023/01/01 01:46:35;;;;;;;4.12;3.33;;;;;;;13.35;78.79;100478.83;1772506;79;21091;-81
2023/01/01 01:49:15;;;;;;;4.33;3.50;;;;;;;13.33;78.75;100475.43;1753979;80;21493;-80
2023/01/01 01:51:43;;;;;;;5.25;3.05;;;;;;;13.36;78.79;100469.30;1774218;80;21016;-81
2023/01/01 01:54:14;;;;;;;5.58;3.22;;;;;;;13.37;78.69;100479.64;1751025;80;21063;-81
2023/01/01 01:56:54;;;;;;;3.85;3.45;;;;;;;13.40;78.64;100486.48;1769348;80;21718;-81
2023/01/01 01:59:24;;;;;;;6.15;4.40;;;;;;;13.40;78.58;100480.84;1753213;80;20988;-81
2023/01/01 02:01:53;;;;;;;3.33;3.02;;;;;;;13.40;78.57;100489.94;1752663;80;21031;-81
2023/01/01 02:04:19;;;;;;;4.78;3.65;;;;;;;13.40;78.55;100490.39;1768258;80;21079;-80
2023/01/01 02:06:47;;;;;;;4.15;3.47;;;;;;;13.41;78.53;100493.39;1779036;79;21322;-80
2023/01/01 02:09:14;;;;;;;4.65;3.52;;;;;;;13.42;78.48;100487.30;1730653;81;21771;-81
2023/01/01 02:11:40;;;;;;;8.08;2.92;;;;;;;13.44;78.46;100490.70;1731965;80;27656;-81
2023/01/01 02:14:07;;;;;;;5.22;3.45;;;;;;;13.45;78.42;100495.00;1725168;82;21632;-81
2023/01/01 02:16:45;;;;;;;4.33;3.12;;;;;;;13.46;78.37;100487.16;1737308;81;21072;-81
2023/01/01 02:19:26;;;;;;;4.28;3.20;;;;;;;13.47;78.29;100489.31;1754100;81;21109;-81
2023/01/01 02:22:15;;;;;;;4.15;2.83;;;;;;;13.47;78.21;100478.47;1697487;82;21632;-80
2023/01/01 02:25:11;;;;;;;4.40;3.50;;;;;;;13.47;78.20;100488.02;1716551;82;21115;-80
2023/01/01 02:28:21;;;;;;;3.47;3.15;;;;;;;13.48;78.14;100494.46;1736619;81;21022;-81
2023/01/01 02:30:50;;;;;;;3.08;2.75;;;;;;;13.47;78.11;100494.50;1706171;82;21609;-81
2023/01/01 02:33:21;;;;;;;4.47;3.40;;;;;;;13.45;78.07;100495.00;1705011;83;21435;-81
2023/01/01 02:35:58;;;;;;;4.53;3.10;;;;;;;13.44;78.01;100491.55;1733210;81;21097;-81
2023/01/01 02:38:42;;;;;;;6.30;2.95;;;;;;;13.43;78.05;100492.45;1755875;81;21011;-81
2023/01/01 02:41:13;;;;;;;3.45;2.85;;;;;;;13.45;77.95;100495.00;1688297;83;20972;-81
2023/01/01 02:43:41;;;;;;;4.53;3.50;;;;;;;13.47;77.88;100490.61;1718375;82;21071;-81
2023/01/01 02:46:11;;;;;;;5.75;3.02;;;;;;;13.48;77.84;100494.46;1752738;81;21044;-81
2023/01/01 02:51:23;;;;;;;3.45;3.15;;;;;;;13.53;77.77;100491.70;1825346;77;22057;-79
2023/01/01 02:54:22;;;;;;;5.62;3.08;;;;;;;13.50;77.73;100493.97;1717594;79;21085;-79
2023/01/01 02:57:03;;;;;;;5.58;2.85;;;;;;;13.50;77.69;100497.86;1810915;77;21123;-80
2023/01/01 03:02:58;;;;;;;5.97;2.90;;;;;;;13.52;77.61;100497.78;1739104;80;21135;-80
2023/01/01 03:06:21;;;;;;;7.70;2.72;;;;;;;13.52;77.52;100496.04;1662010;79;10000465;-80
2023/01/01 03:08:20;;;;;;;4.20;2.77;;;;;;;13.53;77.46;100504.69;1774369;78;20948;-80
2023/01/01 03:10:58;;;;;;;3.80;3.20;;;;;;;13.51;77.41;100505.20;1792573;77;21840;-80
2023/01/01 03:13:33;;;;;;;3.52;2.70;;;;;;;13.49;77.39;100510.45;1802267;79;20926;-80
2023/01/01 03:16:16;;;;;;;3.00;2.22;;;;;;;13.48;77.33;100500.11;1790890;79;20941;-80
2023/01/01 03:19:10;;;;;;;6.78;3.22;;;;;;;13.47;77.30;100513.55;1783661;77;20934;-80
2023/01/01 03:21:56;;;;;;;5.42;2.85;;;;;;;13.45;77.26;100507.54;1793691;79;21518;-80
2023/01/01 03:24:34;;;;;;;3.92;2.62;;;;;;;13.46;77.22;100510.98;1787247;79;21308;-80
2023/01/01 03:27:06;;;;;;;4.15;2.60;;;;;;;13.47;77.19;100508.34;1783759;77;20911;-80
2023/01/01 03:29:37;;;;;;;4.20;2.65;;;;;;;13.47;77.16;100503.59;1671675;77;10000390;-80
2023/01/01 03:32:07;;;;;;;4.72;2.98;;;;;;;13.47;77.09;100508.80;1787593;78;21631;-79
2023/01/01 03:34:42;;;;;;;5.40;2.67;;;;;;;13.45;77.04;100504.94;1791104;79;21032;-80
2023/01/01 03:37:14;;;;;;;4.83;3.25;;;;;;;13.44;76.99;100508.44;1732091;81;21020;-79
2023/01/01 03:39:50;;;;;;;4.25;2.60;;;;;;;13.43;76.96;100504.14;1753340;80;21498;-80
2023/01/01 03:42:45;;;;;;;4.15;2.95;;;;;;;13.40;76.90;100505.52;1744062;80;21521;-80
2023/01/01 03:45:19;;;;;;;3.02;2.42;;;;;;;13.37;76.86;100511.25;1761205;80;21375;-80
2023/01/01 03:47:46;;;;;;;3.12;2.25;;;;;;;13.34;76.83;100507.45;1757685;80;21324;-80
2023/01/01 03:50:13;;;;;;;;;;;;;;;13.30;76.78;100511.03;1729205;80;20969;-79
2023/01/01 03:53:00;;;;;;;3.83;2.37;;;;;;;13.25;76.45;100515.91;1723946;81;20416;-80
2023/01/01 03:55:36;;;;;;;;;;;;;;;13.21;76.71;100512.98;1745436;81;20938;-80
2023/01/01 03:58:20;;;;;;;4.58;2.90;;;;;;;13.18;76.42;100526.50;1734581;81;21154;-80
2023/01/01 04:01:00;;;;;;;3.40;2.17;;;;;;;13.13;76.66;100526.59;1792017;79;21064;-80
2023/01/01 04:03:29;;;;;;;3.47;2.65;;;;;;;13.09;76.58;100531.92;1757219;79;21041;-80
2023/01/01 04:05:56;;;;;;;3.70;2.47;;;;;;;13.04;76.58;100526.85;1793218;79;21061;-80
2023/01/01 04:08:23;;;;;;;3.58;2.50;;;;;;;13.02;76.54;100535.13;1590875;79;5001663;-80
2023/01/01 04:10:57;;;;;;;;;;;;;;;12.98;76.53;100538.73;1686872;83;21216;-79
2023/01/01 04:13:23;;;;;;;3.70;2.33;;;;;;;12.97;76.22;100540.07;1708836;82;20219;-80
2023/01/01 04:15:50;;;;;;;5.08;2.52;;;;;;;12.93;76.45;100538.85;1693264;83;21433;-79
2023/01/01 04:18:16;;;;;;;7.95;3.02;;;;;;;12.91;76.42;100544.53;1708018;83;21750;-80
2023/01/01 04:20:43;;;;;;;5.97;3.17;;;;;;;12.89;76.40;100538.98;1708712;83;21978;-80
2023/01/01 04:23:09;;;;;;;5.37;2.45;;;;;;;12.87;76.36;100542.91;1707949;83;21061;-80
2023/01/01 04:25:36;;;;;;;6.25;2.70;;;;;;;12.87;76.34;100545.95;1708514;83;21114;-80
2023/01/01 04:28:02;;;;;;;4.58;2.77;;;;;;;12.84;76.29;100539.09;1706189;82;21103;-80
2023/01/01 04:30:29;;;;;;;5.33;2.90;;;;;;;12.84;76.26;100539.54;1709907;82;26069;-80
2023/01/01 04:32:56;;;;;;;3.10;2.67;;;;;;;12.84;76.17;100536.95;1697965;82;21050;-79
2023/01/01 04:35:22;;;;;;;5.05;3.22;;;;;;;12.83;76.12;100533.95;1697867;83;21071;-80
2023/01/01 04:37:49;;;;;;;4.87;2.50;;;;;;;12.83;76.11;100533.50;1707967;82;21073;-80
2023/01/01 04:40:15;;;;;;;5.72;2.65;;;;;;;12.84;76.07;100532.61;1703428;83;21538;-80
2023/01/01 04:42:42;;;;;;;10.15;2.92;;;;;;;12.84;75.97;100533.05;1703585;83;21076;-79
2023/01/01 04:45:13;;;;;;;7.03;3.10;;;;;;;12.84;75.96;100531.75;1708175;83;21106;-80
2023/01/01 04:47:38;;;;;;;5.03;2.98;;;;;;;12.85;75.95;100533.46;1703720;83;21539;-80
2023/01/01 04:50:05;;;;;;;4.47;2.37;;;;;;;12.89;75.95;100524.70;1689733;83;21700;-79
2023/01/01 04:52:32;;;;;;;4.05;2.52;;;;;;;12.92;75.87;100525.47;1682817;82;20875;-80
2023/01/01 04:54:59;;;;;;;6.92;2.52;;;;;;;12.96;75.79;100524.09;1716214;82;26390;-80
2023/01/01 04:57:25;;;;;;;4.10;3.40;;;;;;;12.99;75.79;100521.41;1716428;82;21002;-79
2023/01/01 04:59:52;;;;;;;5.17;2.83;;;;;;;13.00;75.69;100522.64;1685550;82;21037;-79
2023/01/01 05:02:18;;;;;;;5.75;3.65;;;;;;;13.03;75.65;100523.00;1708841;82;20903;-80
2023/01/01 05:04:45;;;;;;;7.70;3.15;;;;;;;13.04;75.57;100529.45;1704307;82;21433;-80
2023/01/01 05:07:11;;;;;;;8.55;3.08;;;;;;;13.05;75.55;100538.09;1712503;83;20907;-79
2023/01/01 05:09:38;;;;;;;4.95;3.15;;;;;;;13.07;75.45;100544.94;1701912;82;20927;-79
2023/01/01 05:12:05;;;;;;;6.28;3.52;;;;;;;13.08;75.43;100555.73;1714782;82;21707;-79
2023/01/01 05:14:31;;;;;;;6.42;3.98;;;;;;;13.09;75.38;100560.47;1715502;82;20974;-79
2023/01/01 05:16:57;;;;;;;7.17;3.05;;;;;;;13.08;75.32;100563.52;1686083;83;21074;-79
2023/01/01 05:19:24;;;;;;;6.65;3.65;;;;;;;13.07;75.35;100561.81;1709337;82;21101;-79
2023/01/01 05:21:50;;;;;;;5.40;3.50;;;;;;;13.05;75.30;100562.30;1714980;82;21049;-80
2023/01/01 05:24:17;;;;;;;8.83;3.52;;;;;;;13.05;75.26;100566.64;1707481;82;21826;-80
2023/01/01 05:26:45;;;;;;;6.35;3.45;;;;;;;13.04;75.22;100554.55;1715173;82;21046;-80
2023/01/01 05:29:12;;;;;;;8.05;2.55;;;;;;;13.03;75.16;100552.84;1710336;82;21108;-80
2023/01/01 05:31:39;;;;;;;4.95;3.12;;;;;;;13.02;75.15;100557.19;1708281;82;21159;-79
2023/01/01 05:34:05;;;;;;;8.30;2.87;;;;;;;13.00;75.10;100569.36;1702839;82;21088;-79
2023/01/01 05:36:37;;;;;;;7.03;3.02;;;;;;;12.96;75.05;100582.05;1711350;82;21738;-80
2023/01/01 05:39:06;;;;;;;3.50;2.85;;;;;;;12.93;75.00;100580.83;1709071;82;20912;-80
2023/01/01 05:41:35;;;;;;;4.03;2.30;;;;;;;12.92;74.95;100589.50;1708764;82;21069;-80
2023/01/01 05:44:04;;;;;;;5.25;2.98;;;;;;;12.90;74.96;100597.33;1715392;82;21036;-80
2023/01/01 05:46:31;;;;;;;5.97;2.77;;;;;;;12.91;74.89;100592.55;1710242;82;21127;-80
2023/01/01 05:48:57;;;;;;;4.15;2.52;;;;;;;12.92;74.87;100603.33;1715399;82;21125;-80
2023/01/01 05:51:28;;;;;;;6.10;3.08;;;;;;;12.92;74.83;100599.88;1705778;82;21088;-80
2023/01/01 05:53:55;;;;;;;5.05;2.70;;;;;;;12.92;74.79;100603.77;1693677;83;21122;-79
2023/01/01 05:56:23;;;;;;;5.30;2.80;;;;;;;12.91;74.77;100602.08;1690798;82;21061;-79
2023/01/01 05:58:50;;;;;;;3.02;2.35;;;;;;;12.90;74.75;100609.45;1695234;83;20983;-80
2023/01/01 06:01:23;;;;;;;9.30;2.72;;;;;;;12.88;74.71;100609.49;1703090;83;21649;-80
2023/01/01 06:03:51;;;;;;;6.15;2.52;;;;;;;12.85;74.65;100607.42;1707665;82;22166;-80
2023/01/01 06:06:22;;;;;;;5.50;2.98;;;;;;;12.84;74.56;100608.31;1676282;83;21059;-80
2023/01/01 06:08:58;;;;;;;9.75;3.12;;;;;;;12.82;74.55;100610.09;1642604;85;21061;-80
2023/01/01 06:11:25;;;;;;;5.92;2.90;;;;;;;12.81;74.52;100615.73;1697584;83;26512;-80
2023/01/01 06:13:58;;;;;;;4.17;2.58;;;;;;;12.79;74.48;100625.30;1708797;82;21527;-80
2023/01/01 06:16:27;;;;;;;5.10;2.87;;;;;;;12.76;74.47;100629.26;1694271;83;21090;-80
2023/01/01 06:18:53;;;;;;;4.42;3.22;;;;;;;12.73;74.44;100631.92;1707301;82;21590;-80
2023/01/01 06:21:23;;;;;;;4.95;3.17;;;;;;;12.70;74.40;100628.55;1707527;83;21023;-80
2023/01/01 06:23:50;;;;;;;9.53;3.67;;;;;;;12.68;74.41;100629.89;1700844;82;21140;-80
2023/01/01 06:26:21;;;;;;;5.10;2.92;;;;;;;12.67;74.38;100641.59;1701424;83;21265;-79
2023/01/01 06:28:48;;;;;;;7.28;3.67;;;;;;;12.66;74.36;100645.94;1699886;83;21514;-80
2023/01/01 06:31:18;;;;;;;6.20;3.25;;;;;;;12.67;74.33;100646.79;1703958;82;21053;-79
2023/01/01 06:33:46;;;;;;;5.03;3.05;;;;;;;12.67;74.32;100648.09;1698405;83;20946;-80
2023/01/01 06:36:16;;;;;;;6.35;3.65;;;;;;;12.68;74.24;100652.39;1699433;82;21408;-80
2023/01/01 06:38:46;;;;;;;5.95;3.15;;;;;;;12.70;74.21;100655.35;1656999;85;21034;-80
2023/01/01 06:41:16;;;;;;;9.58;3.27;;;;;;;12.71;74.18;100659.66;1642085;80;5001065;-80
2023/01/01 06:43:43;;;;;;;6.40;3.47;;;;;;;12.71;74.09;100660.09;1739472;81;21777;-80
2023/01/01 06:46:18;;;;;;;;;;;;;;;12.72;74.09;100670.44;1734967;82;20910;-80
2023/01/01 06:48:46;;;;;;;5.87;3.25;;;;;;;12.72;73.83;100678.22;1727036;81;20092;-80
2023/01/01 06:51:20;;;;;;;9.53;3.70;;;;;;;12.72;74.05;100674.77;1687764;83;21427;-79
2023/01/01 06:53:48;;;;;;;5.65;3.45;;;;;;;12.70;74.01;100673.52;1687584;84;20938;-79
2023/01/01 06:56:15;;;;;;;6.67;3.75;;;;;;;12.68;73.99;100678.33;1681300;83;20921;-80
2023/01/01 06:58:41;;;;;;;;;;;;;;;12.67;73.94;100685.70;1649456;86;20977;-80
2023/01/01 07:01:12;;;;;;;6.40;3.02;;;;;;;12.64;73.67;100687.92;1672109;84;20139;-80
2023/01/01 07:03:39;;;;;;;9.78;3.70;;;;;;;12.63;73.95;100695.74;1678587;83;21245;-79
2023/01/01 07:06:07;;;;;;;8.68;4.00;;;;;;;12.61;73.92;100699.67;1667767;84;21356;-79
2023/01/01 07:08:34;;;;;;;6.40;4.03;;;;;;;12.62;73.90;100697.48;1673348;85;21450;-80
2023/01/01 07:11:01;;;;;;;7.28;3.77;;;;;;;12.64;73.89;100702.64;1641403;85;20961;-80
2023/01/01 07:13:30;;;;;;;11.22;4.53;;;;;;;12.65;73.87;100709.09;1656030;84;21269;-80
2023/01/01 07:15:56;;;;;;;5.20;3.75;;;;;;;12.66;73.83;100711.23;1641867;85;21478;-80
2023/01/01 07:18:24;;;;;;;8.20;3.58;;;;;;;12.67;73.82;100715.54;1626147;87;21047;-80
2023/01/01 07:20:54;;;;;;;10.25;4.37;;;;;;;12.67;73.80;100717.69;1630432;87;21901;-79
2023/01/01 07:23:21;;;;;;;4.65;3.70;;;;;;;12.69;73.77;100713.32;1636420;87;20933;-80
2023/01/01 07:25:52;;;;;;;8.03;3.72;;;;;;;12.71;73.80;100721.07;1691860;84;21021;-80
2023/01/01 07:28:20;;;;;;;5.72;3.67;;;;;;;12.72;73.75;100726.66;1694502;84;21182;-80
2023/01/01 07:30:47;;;;;;;6.33;3.72;;;;;;;12.72;73.72;100725.37;1692580;84;21435;-79
2023/01/01 07:33:18;;;;;;;4.40;3.55;;;;;;;12.74;73.70;100727.04;1625965;86;21410;-80
2023/01/01 07:35:45;;;;;;;9.23;4.55;;;;;;;12.75;73.69;100733.08;1670874;84;21030;-80
2023/01/01 07:38:12;;;;;;;;;;;;;;;12.77;73.63;100726.12;1655846;85;21280;-80
2023/01/01 07:40:39;;;;;;;8.30;3.67;;;;;;;12.79;73.25;100721.30;1662691;85;21050;-80
2023/01/01 07:43:05;;;;;;;;;;;;;;;12.82;73.58;100715.19;1684023;84;20907;-80
2023/01/01 07:45:33;;;;;;;9.43;4.08;;;;;;;12.85;73.23;100717.71;1640010;86;20115;-80
2023/01/01 07:48:01;;;;;;;6.28;3.30;;;;;;;12.87;73.54;100712.89;1635285;85;21459;-80
2023/01/01 07:50:31;;;;;;;5.67;4.17;;;;;;;12.89;73.48;100707.22;1656022;85;21893;-80
2023/01/01 07:52:58;;;;;;;4.00;3.40;;;;;;;12.91;73.53;100713.67;1699754;83;21064;-80
2023/01/01 07:55:25;;;;;;;6.35;3.92;;;;;;;12.92;73.48;100720.12;1711430;83;21068;-80
2023/01/01 07:57:51;;;;;;;8.35;3.75;;;;;;;12.94;73.39;100721.39;1573695;83;10001254;-80
2023/01/01 08:00:20;;;;;;;7.55;3.87;;;;;;;12.95;73.41;100714.01;1704640;82;21134;-80
2023/01/01 08:02:47;;;;;;;5.90;3.50;;;;;;;12.98;73.35;100715.67;1665893;84;21144;-80
2023/01/01 08:05:14;;;;;;;9.03;3.77;;;;;;;13.01;73.33;100710.38;1693454;83;21102;-80
2023/01/01 08:07:49;;;;;;;9.45;3.42;;;;;;;13.02;73.34;100711.64;1691876;84;21463;-79
2023/01/01 08:10:21;;;;;;;6.78;3.02;;;;;;;13.06;73.30;100713.27;1689303;84;21100;-80
2023/01/01 08:12:48;;;;;;;6.55;3.25;;;;;;;13.09;73.30;100718.39;1690367;83;21654;-80
2023/01/01 08:15:15;;;;;;;10.03;3.33;;;;;;;13.14;73.26;100721.73;1694111;84;22029;-80
2023/01/01 08:17:42;;;;;;;6.15;3.72;;;;;;;13.19;73.18;100725.09;1680084;83;21466;-79
2023/01/01 08:20:09;;;;;;;7.67;3.37;;;;;;;13.24;73.15;100719.34;1657183;84;21159;-80
2023/01/01 08:22:36;;;;;;;6.42;2.95;;;;;;;13.29;73.10;100722.27;1694330;83;21061;-79
2023/01/01 08:25:03;;;;;;;11.28;3.27;;;;;;;13.32;73.08;100730.83;1576271;83;10001409;-80
2023/01/01 08:27:29;;;;;;;4.60;3.08;;;;;;;13.35;73.09;100735.09;1710965;83;21032;-79
2023/01/01 08:29:56;;;;;;;11.40;3.42;;;;;;;13.37;73.06;100738.06;1712387;83;21266;-80
2023/01/01 08:32:22;;;;;;;5.42;2.98;;;;;;;13.41;73.00;100728.00;1710274;83;21045;-80
2023/01/01 08:34:49;;;;;;;4.65;3.30;;;;;;;13.44;72.95;100734.86;1707808;82;21062;-80
2023/01/01 08:37:15;;;;;;;5.70;3.20;;;;;;;13.46;72.89;100734.38;1711757;82;21533;-80
2023/01/01 08:39:41;;;;;;;4.65;3.12;;;;;;;13.48;72.89;100736.49;1711835;83;21547;-79
2023/01/01 08:42:08;;;;;;;7.87;3.40;;;;;;;13.48;72.84;100741.24;1712284;82;21027;-80
2023/01/01 08:44:34;;;;;;;6.20;3.30;;;;;;;13.50;72.81;100748.55;1708322;83;21037;-80
2023/01/01 08:47:01;;;;;;;6.47;3.27;;;;;;;13.54;72.80;100744.09;1710224;83;21116;-80
2023/01/01 08:49:27;;;;;;;5.60;3.25;;;;;;;13.56;72.77;100745.77;1681793;84;22258;-80
2023/01/01 08:51:54;;;;;;;8.43;3.17;;;;;;;13.58;72.73;100744.42;1697170;82;21096;-80
2023/01/01 08:54:20;;;;;;;7.35;3.37;;;;;;;13.62;72.71;100751.25;1689479;83;21112;-80
2023/01/01 08:56:47;;;;;;;6.42;3.37;;;;;;;13.63;72.65;100746.45;1684352;83;21092;-80
2023/01/01 08:59:13;;;;;;;5.87;2.87;;;;;;;13.66;72.62;100743.77;1686467;84;21755;-80
2023/01/01 09:01:40;;;;;;;6.65;3.00;;;;;;;13.69;72.57;100743.70;1691281;84;21100;-79
2023/01/01 09:04:11;;;;;;;7.83;3.15;;;;;;;13.71;72.55;100747.11;1689122;83;21091;-79
2023/01/01 09:06:34;;;;;;;9.90;3.85;;;;;;;13.74;72.48;100752.22;1684110;84;21116;-80
2023/01/01 09:09:01;;;;;;;8.65;3.30;;;;;;;13.75;72.52;100750.03;1690295;83;21112;-80
2023/01/01 09:11:28;;;;;;;7.25;3.35;;;;;;;13.78;72.46;100752.55;1692634;83;21512;-79
2023/01/01 09:13:54;;;;;;;5.62;2.87;;;;;;;13.82;72.41;100760.67;1685461;82;21110;-80
2023/01/01 09:16:21;;;;;;;5.70;3.10;;;;;;;13.85;72.32;100761.88;1686958;84;21068;-79
2023/01/01 09:18:48;;;;;;;5.47;2.65;;;;;;;13.89;72.29;100763.95;1694443;83;21155;-80
2023/01/01 09:21:15;;;;;;;6.65;2.85;;;;;;;13.93;72.27;100759.52;1688850;83;21115;-79
2023/01/01 09:23:42;;;;;;;3.87;2.65;;;;;;;13.95;72.19;100759.89;1684410;84;21084;-79
2023/01/01 09:26:09;;;;;;;6.08;3.22;;;;;;;13.99;72.16;100752.86;1681494;83;21104;-79
2023/01/01 09:28:37;;;;;;;6.47;2.87;;;;;;;14.00;72.11;100749.36;1693822;83;21020;-79
2023/01/01 09:31:07;;;;;;;4.25;2.33;;;;;;;14.03;72.10;100760.53;1689560;83;21113;-80
2023/01/01 09:33:35;;;;;;;4.85;2.67;;;;;;;14.05;72.02;100769.11;1685013;83;21673;-80
2023/01/01 09:36:19;;;;;;;7.17;2.20;;;;;;;14.10;72.01;100765.08;1685900;84;21079;-79
2023/01/01 09:38:51;;;;;;;5.22;2.50;;;;;;;14.12;71.90;100765.89;1674855;84;21167;-80
2023/01/01 09:41:46;;;;;;;4.55;2.20;;;;;;;14.14;71.94;100772.76;1685179;83;21152;-80
2023/01/01 09:44:39;;;;;;;5.35;2.55;;;;;;;14.18;71.73;100773.52;1685571;83;21096;-79
2023/01/01 09:47:13;;;;;;;6.25;2.33;;;;;;;14.20;71.77;100776.48;1682877;84;21087;-80
2023/01/01 09:49:43;;;;;;;4.90;3.15;;;;;;;14.22;71.74;100782.50;1678155;83;21075;-78
2023/01/01 09:52:13;;;;;;;9.68;2.87;;;;;;;14.25;71.71;100790.22;1694458;82;22867;-78
2023/01/01 09:54:51;;;;;;;7.10;2.70;;;;;;;14.27;71.66;100784.12;1703577;82;21417;-78
2023/01/01 09:57:17;;;;;;;6.60;3.00;;;;;;;14.28;71.63;100784.08;1710961;82;20978;-78
2023/01/01 09:59:44;;;;;;;6.15;3.62;;;;;;;14.31;71.40;100785.28;1714139;82;26311;-79
2023/01/01 10:02:22;;;;;;;6.55;3.12;;;;;;;14.34;71.51;100789.55;1713952;82;26541;-79
2023/01/01 10:05:14;;;;;;;6.17;2.55;;;;;;;14.36;71.40;100785.16;1714172;82;21440;-78
2023/01/01 10:07:46;;;;;;;5.70;2.77;;;;;;;14.39;71.41;100795.47;1714105;82;21313;-79
2023/01/01 10:10:54;;;;;;;5.25;2.47;;;;;;;14.41;71.33;100802.38;1715496;82;21055;-79
2023/01/01 10:13:37;;;;;;;8.33;3.15;;;;;;;14.44;71.32;100798.83;1714778;82;21024;-78
2023/01/01 10:16:17;;;;;;;8.75;2.72;;;;;;;14.47;71.27;100804.80;1689608;82;20930;-78
2023/01/01 10:18:46;;;;;;;3.85;2.60;;;;;;;14.50;71.13;100795.60;1714373;82;21751;-78
2023/01/01 10:21:24;;;;;;;5.85;2.85;;;;;;;14.52;71.12;100794.26;1664224;85;21434;-79
2023/01/01 10:24:42;;;;;;;4.65;2.62;;;;;;;14.54;71.01;100796.37;1690487;83;20911;-79
2023/01/01 10:27:14;;;;;;;5.72;2.90;;;;;;;14.56;70.95;100777.62;1711655;82;20893;-79
2023/01/01 10:29:45;;;;;;;4.65;2.75;;;;;;;14.58;70.81;100786.23;1659917;85;21010;-78
2023/01/01 10:32:19;;;;;;;4.28;2.35;;;;;;;14.60;70.81;100800.50;1714124;82;21729;-78
2023/01/01 10:34:47;;;;;;;6.97;2.70;;;;;;;14.61;70.84;100806.97;1664654;85;20915;-78
2023/01/01 10:37:14;;;;;;;8.88;3.40;;;;;;;14.63;70.79;100803.88;1710710;82;20977;-78
2023/01/01 10:39:41;;;;;;;;;;;;;;;14.65;70.74;100797.32;1667920;85;21487;-79
2023/01/01 10:42:12;;;;;;;4.28;2.17;;;;;;;14.64;70.19;100786.50;1710811;82;20140;-79
2023/01/01 10:44:39;;;;;;;5.62;2.61;;;;;;;14.66;70.30;100799.87;1550677;84;10001197;-78
2023/01/01 10:47:28;;;;;;;;;;;;;;;14.67;70.41;100779.45;1630864;85;20916;-78
2023/01/01 10:50:01;;;;;;;4.58;2.30;;;;;;;14.68;70.12;100798.08;1702500;82;20097;-79
2023/01/01 10:52:41;;;;;;;6.45;3.12;;;;;;;14.70;70.41;100796.73;1687818;84;20958;-78
2023/01/01 10:55:22;;;;;;;5.95;2.37;;;;;;;14.72;70.41;100810.55;1657583;85;21060;-78
2023/01/01 10:57:49;;;;;;;6.58;3.15;;;;;;;14.73;70.38;100809.66;1656404;85;20969;-78
2023/01/01 11:00:23;;;;;;;3.87;2.83;;;;;;;14.75;70.33;100814.38;1651582;85;21401;-78
2023/01/01 11:03:20;;;;;;;4.20;2.70;;;;;;;14.77;70.31;100813.42;1656276;85;21036;-79
2023/01/01 11:06:15;;;;;;;5.85;2.55;;;;;;;14.78;70.30;100812.53;1648368;86;21498;-78
2023/01/01 11:08:49;;;;;;;4.40;2.72;;;;;;;14.80;70.20;100799.02;1650262;85;21213;-79
2023/01/01 11:11:44;;;;;;;4.97;2.35;;;;;;;14.82;70.16;100802.87;1663049;85;21653;-78
2023/01/01 11:14:27;;;;;;;6.42;3.02;;;;;;;14.85;70.05;100804.08;1644787;85;331105;-78
2023/01/01 11:16:56;;;;;;;11.78;2.83;;;;;;;14.86;69.96;100801.88;1692789;83;21124;-78
2023/01/01 11:19:33;;;;;;;4.35;2.65;;;;;;;14.88;69.88;100802.69;1693407;83;21663;-78
2023/01/01 11:22:00;;;;;;;9.65;3.00;;;;;;;14.89;69.93;100804.39;1691105;84;21702;-78
2023/01/01 11:24:29;;;;;;;5.10;2.92;;;;;;;14.92;69.71;100804.75;1695319;83;21125;-78
2023/01/01 11:27:19;;;;;;;5.28;3.42;;;;;;;14.93;69.71;100790.38;1665384;84;21082;-78
2023/01/01 11:29:46;;;;;;;4.42;2.83;;;;;;;14.95;69.69;100797.70;1663983;84;21615;-78
2023/01/01 11:32:27;;;;;;;6.60;2.98;;;;;;;14.98;69.41;100804.56;1665777;85;21145;-78
2023/01/01 11:35:01;;;;;;;6.62;3.00;;;;;;;14.99;69.56;100808.88;1661969;85;21182;-78
2023/01/01 11:37:36;;;;;;;3.75;2.67;;;;;;;15.00;69.54;100808.83;1665288;85;21065;-78
2023/01/01 11:40:08;;;;;;;5.58;3.00;;;;;;;15.01;69.54;100809.23;1665932;85;21750;-78
2023/01/01 11:42:36;;;;;;;9.90;3.35;;;;;;;15.02;69.52;100814.84;1665256;85;21002;-78
2023/01/01 11:45:25;;;;;;;4.58;2.87;;;;;;;15.02;69.50;100814.84;1666871;84;21817;-79
2023/01/01 11:47:58;;;;;;;5.72;3.10;;;;;;;15.02;69.30;100813.98;1666659;84;21693;-78
2023/01/01 11:50:38;;;;;;;3.92;2.92;;;;;;;15.02;69.33;100817.89;1666659;84;20995;-78
2023/01/01 11:53:25;;;;;;;4.60;3.20;;;;;;;15.02;69.20;100816.59;1679116;83;21529;-78
2023/01/01 11:56:03;;;;;;;3.33;2.67;;;;;;;15.04;69.34;100833.02;1691162;83;21000;-78
2023/01/01 11:58:49;;;;;;;4.95;3.30;;;;;;;15.07;69.32;100822.06;1693173;83;21064;-78